sensor_id;sensor_type;location;lat;lon;timestamp;P1;durP1;ratioP1;P2;durP2;ratioP2
38399;SDS011;24180;42.676;23.320;2022-12-20T00:02:03;17.33;;;11.20;;
38399;SDS011;24180;42.676;23.320;2022-12-20T00:04:28;18.63;;;10.97;;
38399;SDS011;24180;42.676;23.320;2022-12-20T00:06:54;18.80;;;11.43;;
38399;SDS011;24180;42.676;23.320;2022-12-20T00:09:19;18.07;;;11.10;;
38399;SDS011;24180;42.676;23.320;2022-12-20T00:11:45;16.67;;;11.33;;
38399;SDS011;24180;42.676;23.320;2022-12-20T00:14:10;20.40;;;10.97;;
38399;SDS011;24180;42.676;23.320;2022-12-20T00:16:36;20.67;;;11.60;;
38399;SDS011;24180;42.676;23.320;2022-12-20T00:19:03;15.03;;;10.77;;
38399;SDS011;24180;42.676;23.320;2022-12-20T00:21:31;18.53;;;11.07;;
38399;SDS011;24180;42.676;23.320;2022-12-20T00:23:58;18.67;;;11.40;;
38399;SDS011;24180;42.676;23.320;2022-12-20T00:26:25;18.03;;;11.80;;
38399;SDS011;24180;42.676;23.320;2022-12-20T00:28:52;18.87;;;11.40;;
38399;SDS011;24180;42.676;23.320;2022-12-20T00:31:19;18.03;;;10.67;;
38399;SDS011;24180;42.676;23.320;2022-12-20T00:33:47;17.17;;;11.63;;
38399;SDS011;24180;42.676;23.320;2022-12-20T00:36:14;18.67;;;11.13;;
38399;SDS011;24180;42.676;23.320;2022-12-20T00:38:40;18.17;;;10.60;;
38399;SDS011;24180;42.676;23.320;2022-12-20T00:41:10;13.77;;;10.17;;
38399;SDS011;24180;42.676;23.320;2022-12-20T00:43:38;17.80;;;11.27;;
38399;SDS011;24180;42.676;23.320;2022-12-20T00:46:05;17.17;;;10.80;;
38399;SDS011;24180;42.676;23.320;2022-12-20T00:48:32;16.47;;;10.83;;
38399;SDS011;24180;42.676;23.320;2022-12-20T00:51:02;15.83;;;10.43;;
38399;SDS011;24180;42.676;23.320;2022-12-20T00:53:30;17.27;;;9.67;;
38399;SDS011;24180;42.676;23.320;2022-12-20T00:55:56;13.53;;;9.47;;
38399;SDS011;24180;42.676;23.320;2022-12-20T00:58:22;14.47;;;10.10;;
38399;SDS011;24180;42.676;23.320;2022-12-20T01:00:48;15.80;;;10.30;;
38399;SDS011;24180;42.676;23.320;2022-12-20T01:03:14;16.17;;;9.63;;
38399;SDS011;24180;42.676;23.320;2022-12-20T01:05:46;11.30;;;8.67;;
38399;SDS011;24180;42.676;23.320;2022-12-20T01:08:14;14.80;;;9.30;;
38399;SDS011;24180;42.676;23.320;2022-12-20T01:10:39;14.70;;;9.73;;
38399;SDS011;24180;42.676;23.320;2022-12-20T01:13:05;15.40;;;10.20;;
38399;SDS011;24180;42.676;23.320;2022-12-20T01:15:31;14.70;;;9.37;;
38399;SDS011;24180;42.676;23.320;2022-12-20T01:17:57;12.67;;;9.10;;
38399;SDS011;24180;42.676;23.320;2022-12-20T01:20:23;13.20;;;8.57;;
38399;SDS011;24180;42.676;23.320;2022-12-20T01:22:48;15.63;;;9.60;;
38399;SDS011;24180;42.676;23.320;2022-12-20T01:25:15;11.30;;;8.60;;
38399;SDS011;24180;42.676;23.320;2022-12-20T01:27:40;14.47;;;9.23;;
38399;SDS011;24180;42.676;23.320;2022-12-20T01:30:06;15.47;;;8.87;;
38399;SDS011;24180;42.676;23.320;2022-12-20T01:32:32;14.80;;;8.67;;
38399;SDS011;24180;42.676;23.320;2022-12-20T01:34:57;11.67;;;8.30;;
38399;SDS011;24180;42.676;23.320;2022-12-20T01:37:23;16.67;;;8.83;;
38399;SDS011;24180;42.676;23.320;2022-12-20T01:39:48;13.00;;;8.50;;
38399;SDS011;24180;42.676;23.320;2022-12-20T01:42:14;13.20;;;9.13;;
38399;SDS011;24180;42.676;23.320;2022-12-20T01:47:08;14.60;;;8.50;;
38399;SDS011;24180;42.676;23.320;2022-12-20T01:49:36;13.00;;;8.30;;
38399;SDS011;24180;42.676;23.320;2022-12-20T01:52:14;12.43;;;8.77;;
38399;SDS011;24180;42.676;23.320;2022-12-20T01:54:53;13.43;;;8.70;;
38399;SDS011;24180;42.676;23.320;2022-12-20T01:57:26;14.80;;;9.33;;
38399;SDS011;24180;42.676;23.320;2022-12-20T01:59:57;11.97;;;8.87;;
38399;SDS011;24180;42.676;23.320;2022-12-20T02:02:23;13.03;;;8.77;;
38399;SDS011;24180;42.676;23.320;2022-12-20T02:04:49;12.17;;;8.67;;
38399;SDS011;24180;42.676;23.320;2022-12-20T02:07:16;12.27;;;9.03;;
38399;SDS011;24180;42.676;23.320;2022-12-20T02:09:45;14.70;;;8.93;;
38399;SDS011;24180;42.676;23.320;2022-12-20T02:12:16;13.90;;;8.93;;
38399;SDS011;24180;42.676;23.320;2022-12-20T02:31:28;13.10;;;8.43;;
38399;SDS011;24180;42.676;23.320;2022-12-20T02:34:03;12.53;;;8.83;;
38399;SDS011;24180;42.676;23.320;2022-12-20T02:36:31;15.83;;;9.13;;
38399;SDS011;24180;42.676;23.320;2022-12-20T02:38:57;15.57;;;9.10;;
38399;SDS011;24180;42.676;23.320;2022-12-20T02:41:26;14.33;;;9.43;;
38399;SDS011;24180;42.676;23.320;2022-12-20T02:44:00;11.53;;;8.93;;
38399;SDS011;24180;42.676;23.320;2022-12-20T02:46:49;14.57;;;9.30;;
38399;SDS011;24180;42.676;23.320;2022-12-20T02:49:18;16.33;;;9.90;;
38399;SDS011;24180;42.676;23.320;2022-12-20T02:51:48;14.40;;;9.30;;
38399;SDS011;24180;42.676;23.320;2022-12-20T02:54:16;14.43;;;9.60;;
38399;SDS011;24180;42.676;23.320;2022-12-20T02:56:56;14.50;;;9.57;;
38399;SDS011;24180;42.676;23.320;2022-12-20T02:59:40;12.90;;;9.00;;
38399;SDS011;24180;42.676;23.320;2022-12-20T03:02:14;15.03;;;9.60;;
38399;SDS011;24180;42.676;23.320;2022-12-20T03:04:40;15.40;;;9.90;;
38399;SDS011;24180;42.676;23.320;2022-12-20T03:07:12;14.70;;;9.53;;
38399;SDS011;24180;42.676;23.320;2022-12-20T03:09:40;14.87;;;10.03;;
38399;SDS011;24180;42.676;23.320;2022-12-20T03:12:07;16.40;;;9.90;;
38399;SDS011;24180;42.676;23.320;2022-12-20T03:14:35;16.80;;;10.67;;
38399;SDS011;24180;42.676;23.320;2022-12-20T03:17:01;15.90;;;10.33;;
38399;SDS011;24180;42.676;23.320;2022-12-20T03:19:28;14.20;;;10.10;;
38399;SDS011;24180;42.676;23.320;2022-12-20T03:21:53;14.20;;;9.47;;
38399;SDS011;24180;42.676;23.320;2022-12-20T03:24:19;13.43;;;9.03;;
38399;SDS011;24180;42.676;23.320;2022-12-20T03:26:44;14.20;;;9.60;;
38399;SDS011;24180;42.676;23.320;2022-12-20T03:29:09;16.33;;;9.57;;
38399;SDS011;24180;42.676;23.320;2022-12-20T03:31:35;16.77;;;10.70;;
38399;SDS011;24180;42.676;23.320;2022-12-20T03:34:02;14.97;;;9.53;;
38399;SDS011;24180;42.676;23.320;2022-12-20T03:36:28;17.90;;;9.60;;
38399;SDS011;24180;42.676;23.320;2022-12-20T03:38:53;13.30;;;10.03;;
38399;SDS011;24180;42.676;23.320;2022-12-20T03:41:19;13.80;;;9.70;;
38399;SDS011;24180;42.676;23.320;2022-12-20T03:43:46;15.73;;;9.93;;
38399;SDS011;24180;42.676;23.320;2022-12-20T03:46:12;18.60;;;11.00;;
38399;SDS011;24180;42.676;23.320;2022-12-20T03:48:38;15.40;;;10.20;;
38399;SDS011;24180;42.676;23.320;2022-12-20T03:51:03;14.50;;;10.90;;
38399;SDS011;24180;42.676;23.320;2022-12-20T03:53:29;16.77;;;11.07;;
38399;SDS011;24180;42.676;23.320;2022-12-20T03:55:54;17.03;;;11.10;;
38399;SDS011;24180;42.676;23.320;2022-12-20T03:58:20;14.73;;;10.67;;
38399;SDS011;24180;42.676;23.320;2022-12-20T04:00:45;15.07;;;9.87;;
38399;SDS011;24180;42.676;23.320;2022-12-20T04:03:11;14.67;;;10.53;;
38399;SDS011;24180;42.676;23.320;2022-12-20T04:05:37;15.97;;;10.83;;
38399;SDS011;24180;42.676;23.320;2022-12-20T04:08:02;16.23;;;11.23;;
38399;SDS011;24180;42.676;23.320;2022-12-20T04:10:28;16.77;;;11.07;;
38399;SDS011;24180;42.676;23.320;2022-12-20T04:12:53;17.70;;;11.30;;
38399;SDS011;24180;42.676;23.320;2022-12-20T04:15:18;15.20;;;10.97;;
38399;SDS011;24180;42.676;23.320;2022-12-20T04:17:44;16.60;;;11.17;;
38399;SDS011;24180;42.676;23.320;2022-12-20T04:20:12;19.13;;;11.37;;
38399;SDS011;24180;42.676;23.320;2022-12-20T04:22:45;14.63;;;10.67;;
38399;SDS011;24180;42.676;23.320;2022-12-20T04:25:15;18.70;;;11.20;;
38399;SDS011;24180;42.676;23.320;2022-12-20T04:27:43;15.27;;;11.13;;
38399;SDS011;24180;42.676;23.320;2022-12-20T04:30:09;18.33;;;12.20;;
38399;SDS011;24180;42.676;23.320;2022-12-20T04:32:36;16.53;;;11.47;;
38399;SDS011;24180;42.676;23.320;2022-12-20T04:35:02;21.30;;;12.10;;
38399;SDS011;24180;42.676;23.320;2022-12-20T04:37:28;18.97;;;12.70;;
38399;SDS011;24180;42.676;23.320;2022-12-20T04:39:54;20.97;;;12.37;;
38399;SDS011;24180;42.676;23.320;2022-12-20T04:42:20;20.50;;;12.90;;
38399;SDS011;24180;42.676;23.320;2022-12-20T04:44:46;21.63;;;13.20;;
38399;SDS011;24180;42.676;23.320;2022-12-20T04:47:12;19.77;;;13.07;;
38399;SDS011;24180;42.676;23.320;2022-12-20T04:49:37;20.30;;;11.93;;
38399;SDS011;24180;42.676;23.320;2022-12-20T04:52:03;21.00;;;12.80;;
38399;SDS011;24180;42.676;23.320;2022-12-20T04:54:47;17.07;;;12.07;;
38399;SDS011;24180;42.676;23.320;2022-12-20T04:57:12;21.77;;;12.97;;
38399;SDS011;24180;42.676;23.320;2022-12-20T04:59:38;20.60;;;12.83;;
38399;SDS011;24180;42.676;23.320;2022-12-20T05:02:03;18.03;;;12.03;;
38399;SDS011;24180;42.676;23.320;2022-12-20T05:04:29;17.70;;;11.97;;
38399;SDS011;24180;42.676;23.320;2022-12-20T05:06:54;17.40;;;11.13;;
38399;SDS011;24180;42.676;23.320;2022-12-20T05:09:20;20.10;;;13.37;;
38399;SDS011;24180;42.676;23.320;2022-12-20T05:11:45;17.60;;;12.03;;
38399;SDS011;24180;42.676;23.320;2022-12-20T05:14:11;19.73;;;11.97;;
38399;SDS011;24180;42.676;23.320;2022-12-20T05:16:36;17.37;;;11.40;;
38399;SDS011;24180;42.676;23.320;2022-12-20T05:19:02;17.00;;;11.87;;
38399;SDS011;24180;42.676;23.320;2022-12-20T05:21:28;16.20;;;11.60;;
38399;SDS011;24180;42.676;23.320;2022-12-20T05:24:13;19.70;;;12.80;;
38399;SDS011;24180;42.676;23.320;2022-12-20T05:26:57;25.43;;;12.87;;
38399;SDS011;24180;42.676;23.320;2022-12-20T05:29:22;22.63;;;12.40;;
38399;SDS011;24180;42.676;23.320;2022-12-20T05:31:48;18.40;;;11.90;;
38399;SDS011;24180;42.676;23.320;2022-12-20T05:34:13;20.23;;;12.53;;
38399;SDS011;24180;42.676;23.320;2022-12-20T05:36:39;21.77;;;13.80;;
38399;SDS011;24180;42.676;23.320;2022-12-20T05:39:04;21.07;;;13.53;;
38399;SDS011;24180;42.676;23.320;2022-12-20T05:41:30;18.73;;;13.17;;
38399;SDS011;24180;42.676;23.320;2022-12-20T05:43:59;18.70;;;12.97;;
38399;SDS011;24180;42.676;23.320;2022-12-20T05:46:24;21.13;;;14.07;;
38399;SDS011;24180;42.676;23.320;2022-12-20T05:48:51;21.70;;;13.60;;
38399;SDS011;24180;42.676;23.320;2022-12-20T05:51:16;19.53;;;13.07;;
38399;SDS011;24180;42.676;23.320;2022-12-20T05:53:42;22.67;;;14.30;;
38399;SDS011;24180;42.676;23.320;2022-12-20T05:56:07;22.93;;;12.77;;
38399;SDS011;24180;42.676;23.320;2022-12-20T05:58:33;21.37;;;12.93;;
38399;SDS011;24180;42.676;23.320;2022-12-20T06:01:02;20.17;;;12.17;;
38399;SDS011;24180;42.676;23.320;2022-12-20T06:03:29;19.10;;;12.37;;
38399;SDS011;24180;42.676;23.320;2022-12-20T06:05:55;19.07;;;12.73;;
38399;SDS011;24180;42.676;23.320;2022-12-20T06:08:20;31.17;;;14.97;;
38399;SDS011;24180;42.676;23.320;2022-12-20T06:10:47;23.43;;;14.07;;
38399;SDS011;24180;42.676;23.320;2022-12-20T06:13:13;19.83;;;12.57;;
38399;SDS011;24180;42.676;23.320;2022-12-20T06:15:38;20.67;;;13.03;;
38399;SDS011;24180;42.676;23.320;2022-12-20T06:18:04;20.90;;;12.70;;
38399;SDS011;24180;42.676;23.320;2022-12-20T06:20:30;28.60;;;15.13;;
38399;SDS011;24180;42.676;23.320;2022-12-20T06:22:56;18.80;;;12.97;;
38399;SDS011;24180;42.676;23.320;2022-12-20T06:25:22;22.83;;;12.97;;
38399;SDS011;24180;42.676;23.320;2022-12-20T06:27:47;21.17;;;13.80;;
38399;SDS011;24180;42.676;23.320;2022-12-20T06:30:13;27.20;;;13.50;;
38399;SDS011;24180;42.676;23.320;2022-12-20T06:32:38;17.53;;;11.73;;
38399;SDS011;24180;42.676;23.320;2022-12-20T06:35:04;19.10;;;12.33;;
38399;SDS011;24180;42.676;23.320;2022-12-20T06:37:30;22.20;;;15.77;;
38399;SDS011;24180;42.676;23.320;2022-12-20T06:39:56;24.10;;;15.07;;
38399;SDS011;24180;42.676;23.320;2022-12-20T06:42:22;19.70;;;13.13;;
38399;SDS011;24180;42.676;23.320;2022-12-20T06:44:48;21.20;;;12.17;;
38399;SDS011;24180;42.676;23.320;2022-12-20T06:47:13;18.83;;;12.50;;
38399;SDS011;24180;42.676;23.320;2022-12-20T06:49:39;35.07;;;15.87;;
38399;SDS011;24180;42.676;23.320;2022-12-20T06:52:04;18.13;;;12.57;;
38399;SDS011;24180;42.676;23.320;2022-12-20T06:54:30;23.03;;;13.03;;
38399;SDS011;24180;42.676;23.320;2022-12-20T06:56:55;18.27;;;12.93;;
38399;SDS011;24180;42.676;23.320;2022-12-20T06:59:20;21.33;;;12.03;;
38399;SDS011;24180;42.676;23.320;2022-12-20T07:01:46;66.60;;;15.83;;
38399;SDS011;24180;42.676;23.320;2022-12-20T07:04:11;52.93;;;16.27;;
38399;SDS011;24180;42.676;23.320;2022-12-20T07:06:37;29.33;;;14.43;;
38399;SDS011;24180;42.676;23.320;2022-12-20T07:09:02;28.17;;;13.50;;
38399;SDS011;24180;42.676;23.320;2022-12-20T07:11:28;26.13;;;12.70;;
38399;SDS011;24180;42.676;23.320;2022-12-20T07:13:56;21.30;;;12.43;;
38399;SDS011;24180;42.676;23.320;2022-12-20T07:16:23;21.73;;;12.13;;
38399;SDS011;24180;42.676;23.320;2022-12-20T07:18:52;19.43;;;12.23;;
38399;SDS011;24180;42.676;23.320;2022-12-20T07:21:18;22.80;;;12.33;;
38399;SDS011;24180;42.676;23.320;2022-12-20T07:23:44;19.17;;;11.97;;
38399;SDS011;24180;42.676;23.320;2022-12-20T07:26:11;26.77;;;12.67;;
38399;SDS011;24180;42.676;23.320;2022-12-20T07:28:37;18.77;;;11.47;;
38399;SDS011;24180;42.676;23.320;2022-12-20T07:31:03;19.30;;;11.73;;
38399;SDS011;24180;42.676;23.320;2022-12-20T07:33:30;23.43;;;11.83;;
38399;SDS011;24180;42.676;23.320;2022-12-20T07:35:59;19.67;;;12.73;;
38399;SDS011;24180;42.676;23.320;2022-12-20T07:38:29;17.13;;;11.33;;
38399;SDS011;24180;42.676;23.320;2022-12-20T07:40:54;17.57;;;11.80;;
38399;SDS011;24180;42.676;23.320;2022-12-20T07:43:20;21.77;;;11.97;;
38399;SDS011;24180;42.676;23.320;2022-12-20T07:45:45;18.03;;;11.40;;
38399;SDS011;24180;42.676;23.320;2022-12-20T07:48:11;18.50;;;10.90;;
38399;SDS011;24180;42.676;23.320;2022-12-20T07:50:37;17.10;;;10.73;;
38399;SDS011;24180;42.676;23.320;2022-12-20T07:53:04;15.60;;;10.27;;
38399;SDS011;24180;42.676;23.320;2022-12-20T07:55:30;16.03;;;10.83;;
38399;SDS011;24180;42.676;23.320;2022-12-20T07:57:59;17.63;;;11.27;;
38399;SDS011;24180;42.676;23.320;2022-12-20T08:00:29;18.17;;;11.17;;
38399;SDS011;24180;42.676;23.320;2022-12-20T08:05:32;21.47;;;11.60;;
38399;SDS011;24180;42.676;23.320;2022-12-20T08:07:59;16.67;;;11.27;;
38399;SDS011;24180;42.676;23.320;2022-12-20T08:10:26;16.67;;;11.43;;
38399;SDS011;24180;42.676;23.320;2022-12-20T08:12:52;16.37;;;9.47;;
38399;SDS011;24180;42.676;23.320;2022-12-20T08:15:19;16.60;;;10.10;;
38399;SDS011;24180;42.676;23.320;2022-12-20T08:17:47;16.80;;;11.10;;
38399;SDS011;24180;42.676;23.320;2022-12-20T08:20:13;17.97;;;11.80;;
38399;SDS011;24180;42.676;23.320;2022-12-20T08:22:38;19.20;;;11.63;;
38399;SDS011;24180;42.676;23.320;2022-12-20T08:25:04;20.17;;;11.83;;
38399;SDS011;24180;42.676;23.320;2022-12-20T08:27:30;19.60;;;11.00;;
38399;SDS011;24180;42.676;23.320;2022-12-20T08:29:55;16.20;;;10.13;;
38399;SDS011;24180;42.676;23.320;2022-12-20T08:32:21;20.03;;;11.43;;
38399;SDS011;24180;42.676;23.320;2022-12-20T08:34:46;20.27;;;11.70;;
38399;SDS011;24180;42.676;23.320;2022-12-20T08:37:14;16.63;;;11.03;;
38399;SDS011;24180;42.676;23.320;2022-12-20T08:39:41;42.80;;;22.03;;
38399;SDS011;24180;42.676;23.320;2022-12-20T08:42:06;14.53;;;10.37;;
38399;SDS011;24180;42.676;23.320;2022-12-20T08:44:32;21.90;;;11.97;;
38399;SDS011;24180;42.676;23.320;2022-12-20T08:46:57;22.53;;;14.13;;
38399;SDS011;24180;42.676;23.320;2022-12-20T08:49:23;20.20;;;11.53;;
38399;SDS011;24180;42.676;23.320;2022-12-20T08:51:48;17.70;;;11.83;;
38399;SDS011;24180;42.676;23.320;2022-12-20T08:54:14;16.37;;;9.93;;
38399;SDS011;24180;42.676;23.320;2022-12-20T08:56:39;14.20;;;9.40;;
38399;SDS011;24180;42.676;23.320;2022-12-20T08:59:04;21.90;;;10.40;;
38399;SDS011;24180;42.676;23.320;2022-12-20T09:01:30;34.30;;;21.67;;
38399;SDS011;24180;42.676;23.320;2022-12-20T09:03:57;16.87;;;9.27;;
38399;SDS011;24180;42.676;23.320;2022-12-20T09:06:23;19.40;;;11.67;;
38399;SDS011;24180;42.676;23.320;2022-12-20T09:08:49;13.50;;;9.43;;
38399;SDS011;24180;42.676;23.320;2022-12-20T09:11:15;14.47;;;9.23;;
38399;SDS011;24180;42.676;23.320;2022-12-20T09:13:46;12.10;;;8.80;;
38399;SDS011;24180;42.676;23.320;2022-12-20T09:16:14;12.40;;;9.27;;
38399;SDS011;24180;42.676;23.320;2022-12-20T09:18:41;13.03;;;9.33;;
38399;SDS011;24180;42.676;23.320;2022-12-20T09:21:08;14.73;;;12.50;;
38399;SDS011;24180;42.676;23.320;2022-12-20T09:23:34;14.60;;;10.67;;
38399;SDS011;24180;42.676;23.320;2022-12-20T09:26:01;32.37;;;16.40;;
38399;SDS011;24180;42.676;23.320;2022-12-20T09:28:38;16.03;;;10.40;;
38399;SDS011;24180;42.676;23.320;2022-12-20T09:31:04;12.23;;;9.80;;
38399;SDS011;24180;42.676;23.320;2022-12-20T09:33:35;11.03;;;8.97;;
38399;SDS011;24180;42.676;23.320;2022-12-20T09:36:00;12.10;;;9.37;;
38399;SDS011;24180;42.676;23.320;2022-12-20T09:38:27;19.40;;;10.93;;
38399;SDS011;24180;42.676;23.320;2022-12-20T09:40:53;15.93;;;10.43;;
38399;SDS011;24180;42.676;23.320;2022-12-20T09:43:22;13.33;;;10.13;;
38399;SDS011;24180;42.676;23.320;2022-12-20T09:45:51;12.73;;;9.73;;
38399;SDS011;24180;42.676;23.320;2022-12-20T09:48:22;11.90;;;8.77;;
38399;SDS011;24180;42.676;23.320;2022-12-20T09:56:00;12.80;;;10.20;;
38399;SDS011;24180;42.676;23.320;2022-12-20T10:01:25;14.83;;;10.40;;
38399;SDS011;24180;42.676;23.320;2022-12-20T10:03:52;13.83;;;10.30;;
38399;SDS011;24180;42.676;23.320;2022-12-20T10:09:04;11.20;;;9.17;;
38399;SDS011;24180;42.676;23.320;2022-12-20T10:11:53;17.57;;;11.00;;
38399;SDS011;24180;42.676;23.320;2022-12-20T10:20:32;13.93;;;9.80;;
38399;SDS011;24180;42.676;23.320;2022-12-20T10:25:51;12.07;;;10.80;;
38399;SDS011;24180;42.676;23.320;2022-12-20T10:28:19;15.33;;;10.63;;
38399;SDS011;24180;42.676;23.320;2022-12-20T10:30:50;13.67;;;10.83;;
38399;SDS011;24180;42.676;23.320;2022-12-20T10:33:20;15.43;;;11.33;;
38399;SDS011;24180;42.676;23.320;2022-12-20T10:35:47;20.63;;;12.33;;
38399;SDS011;24180;42.676;23.320;2022-12-20T10:38:15;24.30;;;11.60;;
38399;SDS011;24180;42.676;23.320;2022-12-20T10:40:43;12.70;;;9.53;;
38399;SDS011;24180;42.676;23.320;2022-12-20T10:43:20;11.30;;;9.13;;
38399;SDS011;24180;42.676;23.320;2022-12-20T10:45:57;27.27;;;10.10;;
38399;SDS011;24180;42.676;23.320;2022-12-20T10:48:37;17.17;;;10.90;;
38399;SDS011;24180;42.676;23.320;2022-12-20T10:53:32;11.83;;;8.80;;
38399;SDS011;24180;42.676;23.320;2022-12-20T10:56:18;14.60;;;9.83;;
38399;SDS011;24180;42.676;23.320;2022-12-20T11:01:23;17.10;;;10.47;;
38399;SDS011;24180;42.676;23.320;2022-12-20T11:04:04;9.03;;;7.50;;
38399;SDS011;24180;42.676;23.320;2022-12-20T11:11:56;15.50;;;9.10;;
38399;SDS011;24180;42.676;23.320;2022-12-20T11:14:22;18.73;;;9.10;;
38399;SDS011;24180;42.676;23.320;2022-12-20T11:16:49;11.73;;;8.40;;
38399;SDS011;24180;42.676;23.320;2022-12-20T11:21:59;17.10;;;8.30;;
38399;SDS011;24180;42.676;23.320;2022-12-20T11:27:12;12.87;;;7.53;;
38399;SDS011;24180;42.676;23.320;2022-12-20T11:41:07;11.63;;;7.73;;
38399;SDS011;24180;42.676;23.320;2022-12-20T11:49:28;10.43;;;6.27;;
38399;SDS011;24180;42.676;23.320;2022-12-20T11:52:22;11.47;;;7.53;;
38399;SDS011;24180;42.676;23.320;2022-12-20T11:55:18;23.13;;;8.70;;
38399;SDS011;24180;42.676;23.320;2022-12-20T12:00:34;19.97;;;8.67;;
38399;SDS011;24180;42.676;23.320;2022-12-20T12:03:15;40.03;;;11.63;;
38399;SDS011;24180;42.676;23.320;2022-12-20T12:05:52;15.33;;;8.50;;
38399;SDS011;24180;42.676;23.320;2022-12-20T12:08:57;35.20;;;9.67;;
38399;SDS011;24180;42.676;23.320;2022-12-20T12:11:24;14.97;;;7.77;;
38399;SDS011;24180;42.676;23.320;2022-12-20T12:13:55;23.07;;;12.27;;
38399;SDS011;24180;42.676;23.320;2022-12-20T12:16:24;18.47;;;8.17;;
38399;SDS011;24180;42.676;23.320;2022-12-20T12:18:54;22.77;;;7.90;;
38399;SDS011;24180;42.676;23.320;2022-12-20T12:21:24;16.80;;;7.97;;
38399;SDS011;24180;42.676;23.320;2022-12-20T12:24:02;14.07;;;8.43;;
38399;SDS011;24180;42.676;23.320;2022-12-20T12:26:36;13.07;;;7.53;;
38399;SDS011;24180;42.676;23.320;2022-12-20T12:48:52;17.30;;;7.37;;
38399;SDS011;24180;42.676;23.320;2022-12-20T12:51:21;14.97;;;7.27;;
38399;SDS011;24180;42.676;23.320;2022-12-20T12:53:52;11.53;;;7.93;;
38399;SDS011;24180;42.676;23.320;2022-12-20T12:59:20;9.33;;;6.93;;
38399;SDS011;24180;42.676;23.320;2022-12-20T13:11:50;14.10;;;6.90;;
38399;SDS011;24180;42.676;23.320;2022-12-20T13:16:45;11.87;;;7.20;;
38399;SDS011;24180;42.676;23.320;2022-12-20T13:21:41;10.23;;;7.60;;
38399;SDS011;24180;42.676;23.320;2022-12-20T13:27:57;11.73;;;8.17;;
38399;SDS011;24180;42.676;23.320;2022-12-20T13:40:19;11.20;;;7.80;;
38399;SDS011;24180;42.676;23.320;2022-12-20T13:43:02;9.60;;;7.20;;
38399;SDS011;24180;42.676;23.320;2022-12-20T13:45:31;14.97;;;8.27;;
38399;SDS011;24180;42.676;23.320;2022-12-20T13:47:59;10.73;;;7.10;;
38399;SDS011;24180;42.676;23.320;2022-12-20T13:53:15;14.30;;;9.33;;
38399;SDS011;24180;42.676;23.320;2022-12-20T13:55:41;16.13;;;9.83;;
38399;SDS011;24180;42.676;23.320;2022-12-20T13:58:27;14.50;;;8.60;;
38399;SDS011;24180;42.676;23.320;2022-12-20T14:01:05;13.70;;;9.67;;
38399;SDS011;24180;42.676;23.320;2022-12-20T14:03:39;13.43;;;9.13;;
38399;SDS011;24180;42.676;23.320;2022-12-20T14:06:09;13.87;;;9.30;;
38399;SDS011;24180;42.676;23.320;2022-12-20T14:08:37;13.63;;;8.97;;
38399;SDS011;24180;42.676;23.320;2022-12-20T14:11:08;16.53;;;8.63;;
38399;SDS011;24180;42.676;23.320;2022-12-20T14:13:37;14.33;;;9.20;;
38399;SDS011;24180;42.676;23.320;2022-12-20T14:18:59;16.53;;;9.60;;
38399;SDS011;24180;42.676;23.320;2022-12-20T14:21:30;15.67;;;9.87;;
38399;SDS011;24180;42.676;23.320;2022-12-20T14:23:59;17.50;;;9.00;;
38399;SDS011;24180;42.676;23.320;2022-12-20T14:26:28;16.83;;;9.90;;
38399;SDS011;24180;42.676;23.320;2022-12-20T14:29:08;17.90;;;9.03;;
38399;SDS011;24180;42.676;23.320;2022-12-20T14:31:37;16.73;;;9.50;;
38399;SDS011;24180;42.676;23.320;2022-12-20T14:36:34;17.27;;;10.37;;
38399;SDS011;24180;42.676;23.320;2022-12-20T14:42:00;22.50;;;9.13;;
38399;SDS011;24180;42.676;23.320;2022-12-20T14:44:32;17.00;;;9.70;;
38399;SDS011;24180;42.676;23.320;2022-12-20T14:46:59;22.87;;;9.37;;
38399;SDS011;24180;42.676;23.320;2022-12-20T14:54:57;17.00;;;9.93;;
38399;SDS011;24180;42.676;23.320;2022-12-20T15:02:56;15.03;;;7.93;;
38399;SDS011;24180;42.676;23.320;2022-12-20T15:05:58;15.03;;;7.17;;
38399;SDS011;24180;42.676;23.320;2022-12-20T15:08:28;14.07;;;7.37;;
38399;SDS011;24180;42.676;23.320;2022-12-20T15:13:35;12.00;;;8.07;;
38399;SDS011;24180;42.676;23.320;2022-12-20T15:16:13;11.70;;;7.23;;
38399;SDS011;24180;42.676;23.320;2022-12-20T15:18:40;11.60;;;6.97;;
38399;SDS011;24180;42.676;23.320;2022-12-20T15:21:12;11.10;;;7.13;;
38399;SDS011;24180;42.676;23.320;2022-12-20T15:23:45;8.67;;;6.50;;
38399;SDS011;24180;42.676;23.320;2022-12-20T15:26:14;9.83;;;6.53;;
38399;SDS011;24180;42.676;23.320;2022-12-20T15:28:40;10.17;;;6.47;;
38399;SDS011;24180;42.676;23.320;2022-12-20T15:31:08;9.57;;;6.43;;
38399;SDS011;24180;42.676;23.320;2022-12-20T15:33:39;10.07;;;6.47;;
38399;SDS011;24180;42.676;23.320;2022-12-20T15:36:06;9.80;;;7.07;;
38399;SDS011;24180;42.676;23.320;2022-12-20T15:38:33;11.27;;;6.53;;
38399;SDS011;24180;42.676;23.320;2022-12-20T15:41:00;12.23;;;7.13;;
38399;SDS011;24180;42.676;23.320;2022-12-20T15:43:28;9.87;;;6.27;;
38399;SDS011;24180;42.676;23.320;2022-12-20T15:46:00;10.10;;;6.67;;
38399;SDS011;24180;42.676;23.320;2022-12-20T15:48:25;9.10;;;7.00;;
38399;SDS011;24180;42.676;23.320;2022-12-20T15:50:55;8.70;;;6.30;;
38399;SDS011;24180;42.676;23.320;2022-12-20T15:53:31;12.97;;;6.90;;
38399;SDS011;24180;42.676;23.320;2022-12-20T15:55:58;9.93;;;6.77;;
38399;SDS011;24180;42.676;23.320;2022-12-20T15:58:24;8.37;;;6.70;;
38399;SDS011;24180;42.676;23.320;2022-12-20T16:00:54;11.23;;;7.33;;
38399;SDS011;24180;42.676;23.320;2022-12-20T16:03:25;13.90;;;7.13;;
38399;SDS011;24180;42.676;23.320;2022-12-20T16:05:55;10.23;;;6.93;;
38399;SDS011;24180;42.676;23.320;2022-12-20T16:08:20;8.10;;;5.97;;
38399;SDS011;24180;42.676;23.320;2022-12-20T16:10:47;8.03;;;6.50;;
38399;SDS011;24180;42.676;23.320;2022-12-20T16:13:16;16.83;;;6.33;;
38399;SDS011;24180;42.676;23.320;2022-12-20T16:15:46;8.57;;;6.47;;
38399;SDS011;24180;42.676;23.320;2022-12-20T16:18:12;9.33;;;5.80;;
38399;SDS011;24180;42.676;23.320;2022-12-20T16:20:37;8.10;;;6.17;;
38399;SDS011;24180;42.676;23.320;2022-12-20T16:23:04;9.77;;;6.57;;
38399;SDS011;24180;42.676;23.320;2022-12-20T16:25:32;9.80;;;6.40;;
38399;SDS011;24180;42.676;23.320;2022-12-20T16:27:59;9.67;;;6.30;;
38399;SDS011;24180;42.676;23.320;2022-12-20T16:30:25;11.60;;;6.70;;
38399;SDS011;24180;42.676;23.320;2022-12-20T16:32:51;10.17;;;7.10;;
38399;SDS011;24180;42.676;23.320;2022-12-20T16:35:27;8.97;;;6.80;;
38399;SDS011;24180;42.676;23.320;2022-12-20T16:37:55;11.33;;;7.23;;
38399;SDS011;24180;42.676;23.320;2022-12-20T16:40:25;12.10;;;7.83;;
38399;SDS011;24180;42.676;23.320;2022-12-20T16:42:53;9.23;;;7.30;;
38399;SDS011;24180;42.676;23.320;2022-12-20T16:45:21;11.03;;;7.27;;
38399;SDS011;24180;42.676;23.320;2022-12-20T16:47:48;11.53;;;7.77;;
38399;SDS011;24180;42.676;23.320;2022-12-20T16:50:15;14.13;;;7.80;;
38399;SDS011;24180;42.676;23.320;2022-12-20T16:52:41;11.67;;;7.03;;
38399;SDS011;24180;42.676;23.320;2022-12-20T16:55:12;10.73;;;6.50;;
38399;SDS011;24180;42.676;23.320;2022-12-20T16:57:40;10.93;;;6.97;;